sensor_id;sensor_type;location;lat;lon;timestamp;P1;durP1;ratioP1;P2;durP2;ratioP2
83634;SDS011;73596;49.482;11.238;2024-01-30T00:00:02;3.03;;;1.77;;
83634;SDS011;73596;49.482;11.238;2024-01-30T00:02:28;5.30;;;2.00;;
83634;SDS011;73596;49.482;11.238;2024-01-30T00:04:54;4.57;;;2.33;;
83634;SDS011;73596;49.482;11.238;2024-01-30T00:07:19;3.70;;;2.30;;
83634;SDS011;73596;49.482;11.238;2024-01-30T00:09:46;6.03;;;1.77;;
83634;SDS011;73596;49.482;11.238;2024-01-30T00:12:12;5.25;;;1.75;;
83634;SDS011;73596;49.482;11.238;2024-01-30T00:14:38;4.40;;;2.10;;
83634;SDS011;73596;49.482;11.238;2024-01-30T00:17:03;5.23;;;2.13;;
83634;SDS011;73596;49.482;11.238;2024-01-30T00:19:29;7.47;;;2.45;;
83634;SDS011;73596;49.482;11.238;2024-01-30T00:21:54;7.57;;;2.25;;
83634;SDS011;73596;49.482;11.238;2024-01-30T00:24:20;3.93;;;1.80;;
83634;SDS011;73596;49.482;11.238;2024-01-30T00:26:45;6.13;;;2.30;;
83634;SDS011;73596;49.482;11.238;2024-01-30T00:29:10;4.00;;;2.13;;
83634;SDS011;73596;49.482;11.238;2024-01-30T00:31:35;4.85;;;1.98;;
83634;SDS011;73596;49.482;11.238;2024-01-30T00:34:01;3.07;;;1.77;;
83634;SDS011;73596;49.482;11.238;2024-01-30T00:36:26;2.43;;;1.67;;
83634;SDS011;73596;49.482;11.238;2024-01-30T00:38:54;3.65;;;2.10;;
83634;SDS011;73596;49.482;11.238;2024-01-30T00:41:20;4.77;;;2.30;;
83634;SDS011;73596;49.482;11.238;2024-01-30T00:43:45;3.85;;;1.75;;
83634;SDS011;73596;49.482;11.238;2024-01-30T00:46:10;5.00;;;1.75;;
83634;SDS011;73596;49.482;11.238;2024-01-30T00:48:35;3.20;;;1.87;;
83634;SDS011;73596;49.482;11.238;2024-01-30T00:51:01;5.53;;;1.83;;
83634;SDS011;73596;49.482;11.238;2024-01-30T00:53:26;3.57;;;2.10;;
83634;SDS011;73596;49.482;11.238;2024-01-30T00:55:51;2.80;;;1.70;;
83634;SDS011;73596;49.482;11.238;2024-01-30T00:58:17;4.00;;;1.73;;
83634;SDS011;73596;49.482;11.238;2024-01-30T01:00:44;4.45;;;1.88;;
83634;SDS011;73596;49.482;11.238;2024-01-30T01:03:09;4.93;;;2.53;;
83634;SDS011;73596;49.482;11.238;2024-01-30T01:05:34;2.47;;;1.47;;
83634;SDS011;73596;49.482;11.238;2024-01-30T01:08:00;4.13;;;2.20;;
83634;SDS011;73596;49.482;11.238;2024-01-30T01:10:25;4.37;;;2.17;;
83634;SDS011;73596;49.482;11.238;2024-01-30T01:12:50;4.57;;;1.67;;
83634;SDS011;73596;49.482;11.238;2024-01-30T01:15:15;4.07;;;1.87;;
83634;SDS011;73596;49.482;11.238;2024-01-30T01:17:41;3.53;;;1.93;;
83634;SDS011;73596;49.482;11.238;2024-01-30T01:20:06;2.80;;;1.45;;
83634;SDS011;73596;49.482;11.238;2024-01-30T01:22:33;3.22;;;1.88;;
83634;SDS011;73596;49.482;11.238;2024-01-30T01:24:59;3.30;;;2.20;;
83634;SDS011;73596;49.482;11.238;2024-01-30T01:27:24;3.80;;;2.25;;
83634;SDS011;73596;49.482;11.238;2024-01-30T01:29:50;3.88;;;1.92;;
83634;SDS011;73596;49.482;11.238;2024-01-30T01:32:15;4.35;;;1.88;;
83634;SDS011;73596;49.482;11.238;2024-01-30T01:34:41;3.47;;;1.17;;
83634;SDS011;73596;49.482;11.238;2024-01-30T01:37:06;4.13;;;1.67;;
83634;SDS011;73596;49.482;11.238;2024-01-30T01:39:32;2.83;;;1.00;;
83634;SDS011;73596;49.482;11.238;2024-01-30T01:41:57;3.03;;;1.30;;
83634;SDS011;73596;49.482;11.238;2024-01-30T01:44:22;3.90;;;1.77;;
83634;SDS011;73596;49.482;11.238;2024-01-30T01:46:48;2.40;;;1.23;;
83634;SDS011;73596;49.482;11.238;2024-01-30T01:49:13;3.35;;;1.80;;
83634;SDS011;73596;49.482;11.238;2024-01-30T01:51:39;3.35;;;1.70;;
83634;SDS011;73596;49.482;11.238;2024-01-30T01:54:06;3.05;;;1.60;;
83634;SDS011;73596;49.482;11.238;2024-01-30T01:56:33;3.78;;;1.40;;
83634;SDS011;73596;49.482;11.238;2024-01-30T01:59:06;1.55;;;1.00;;
83634;SDS011;73596;49.482;11.238;2024-01-30T02:01:38;2.80;;;1.23;;
83634;SDS011;73596;49.482;11.238;2024-01-30T02:04:06;3.53;;;1.92;;
83634;SDS011;73596;49.482;11.238;2024-01-30T02:06:32;2.97;;;1.15;;
83634;SDS011;73596;49.482;11.238;2024-01-30T02:08:59;3.20;;;1.65;;
83634;SDS011;73596;49.482;11.238;2024-01-30T02:11:24;2.60;;;1.33;;
83634;SDS011;73596;49.482;11.238;2024-01-30T02:13:49;2.33;;;1.50;;
83634;SDS011;73596;49.482;11.238;2024-01-30T02:16:15;5.35;;;2.20;;
83634;SDS011;73596;49.482;11.238;2024-01-30T02:18:42;2.20;;;1.08;;
83634;SDS011;73596;49.482;11.238;2024-01-30T02:21:10;4.00;;;1.38;;
83634;SDS011;73596;49.482;11.238;2024-01-30T02:23:35;4.93;;;1.60;;
83634;SDS011;73596;49.482;11.238;2024-01-30T02:26:02;4.30;;;1.63;;
83634;SDS011;73596;49.482;11.238;2024-01-30T02:28:28;3.13;;;1.70;;
83634;SDS011;73596;49.482;11.238;2024-01-30T02:30:53;2.47;;;1.63;;
83634;SDS011;73596;49.482;11.238;2024-01-30T02:33:18;3.43;;;1.50;;
83634;SDS011;73596;49.482;11.238;2024-01-30T02:35:44;7.15;;;1.75;;
83634;SDS011;73596;49.482;11.238;2024-01-30T02:38:09;3.03;;;1.30;;
83634;SDS011;73596;49.482;11.238;2024-01-30T02:40:35;6.65;;;1.30;;
83634;SDS011;73596;49.482;11.238;2024-01-30T02:43:01;2.43;;;1.10;;
83634;SDS011;73596;49.482;11.238;2024-01-30T02:45:27;3.50;;;1.40;;
83634;SDS011;73596;49.482;11.238;2024-01-30T02:47:52;3.63;;;1.87;;
83634;SDS011;73596;49.482;11.238;2024-01-30T02:50:18;1.60;;;0.87;;
83634;SDS011;73596;49.482;11.238;2024-01-30T02:52:43;1.92;;;1.48;;
83634;SDS011;73596;49.482;11.238;2024-01-30T02:55:11;5.63;;;2.33;;
83634;SDS011;73596;49.482;11.238;2024-01-30T02:57:37;4.40;;;1.85;;
83634;SDS011;73596;49.482;11.238;2024-01-30T03:00:03;5.07;;;2.33;;
83634;SDS011;73596;49.482;11.238;2024-01-30T03:02:30;4.85;;;1.88;;
83634;SDS011;73596;49.482;11.238;2024-01-30T03:04:56;2.75;;;1.40;;
83634;SDS011;73596;49.482;11.238;2024-01-30T03:07:21;2.73;;;1.40;;
83634;SDS011;73596;49.482;11.238;2024-01-30T03:09:47;1.93;;;1.50;;
83634;SDS011;73596;49.482;11.238;2024-01-30T03:12:13;3.42;;;1.58;;
83634;SDS011;73596;49.482;11.238;2024-01-30T03:14:38;2.70;;;1.70;;
83634;SDS011;73596;49.482;11.238;2024-01-30T03:17:03;2.93;;;1.50;;
83634;SDS011;73596;49.482;11.238;2024-01-30T03:19:29;4.03;;;1.53;;
83634;SDS011;73596;49.482;11.238;2024-01-30T03:21:54;1.97;;;1.00;;
83634;SDS011;73596;49.482;11.238;2024-01-30T03:24:19;4.83;;;1.80;;
83634;SDS011;73596;49.482;11.238;2024-01-30T03:26:44;3.20;;;1.80;;
83634;SDS011;73596;49.482;11.238;2024-01-30T03:29:10;3.03;;;1.53;;
83634;SDS011;73596;49.482;11.238;2024-01-30T03:31:35;3.67;;;1.57;;
83634;SDS011;73596;49.482;11.238;2024-01-30T03:34:00;2.23;;;1.37;;
83634;SDS011;73596;49.482;11.238;2024-01-30T03:36:26;1.98;;;0.93;;
83634;SDS011;73596;49.482;11.238;2024-01-30T03:38:51;3.07;;;1.60;;
83634;SDS011;73596;49.482;11.238;2024-01-30T03:41:16;1.88;;;1.27;;
83634;SDS011;73596;49.482;11.238;2024-01-30T03:43:42;2.70;;;1.13;;
83634;SDS011;73596;49.482;11.238;2024-01-30T03:46:07;2.47;;;1.20;;
83634;SDS011;73596;49.482;11.238;2024-01-30T03:48:32;2.17;;;1.10;;
83634;SDS011;73596;49.482;11.238;2024-01-30T03:50:58;2.88;;;1.33;;
83634;SDS011;73596;49.482;11.238;2024-01-30T03:53:23;1.80;;;1.13;;
83634;SDS011;73596;49.482;11.238;2024-01-30T03:55:48;3.65;;;1.67;;
83634;SDS011;73596;49.482;11.238;2024-01-30T03:58:14;2.83;;;1.53;;
83634;SDS011;73596;49.482;11.238;2024-01-30T04:00:39;4.03;;;1.63;;
83634;SDS011;73596;49.482;11.238;2024-01-30T04:03:05;3.40;;;1.42;;
83634;SDS011;73596;49.482;11.238;2024-01-30T04:05:31;2.10;;;1.20;;
83634;SDS011;73596;49.482;11.238;2024-01-30T04:07:56;2.90;;;1.67;;
83634;SDS011;73596;49.482;11.238;2024-01-30T04:10:21;2.60;;;1.70;;
83634;SDS011;73596;49.482;11.238;2024-01-30T04:12:49;3.17;;;1.85;;
83634;SDS011;73596;49.482;11.238;2024-01-30T04:15:14;4.40;;;1.53;;
83634;SDS011;73596;49.482;11.238;2024-01-30T04:17:40;3.95;;;2.00;;
83634;SDS011;73596;49.482;11.238;2024-01-30T04:20:05;2.83;;;1.07;;
83634;SDS011;73596;49.482;11.238;2024-01-30T04:22:31;5.18;;;2.00;;
83634;SDS011;73596;49.482;11.238;2024-01-30T04:24:57;2.17;;;0.93;;
83634;SDS011;73596;49.482;11.238;2024-01-30T04:27:22;3.42;;;2.00;;
83634;SDS011;73596;49.482;11.238;2024-01-30T04:29:47;1.90;;;0.97;;
83634;SDS011;73596;49.482;11.238;2024-01-30T04:32:12;2.50;;;1.10;;
83634;SDS011;73596;49.482;11.238;2024-01-30T04:34:38;1.67;;;1.20;;
83634;SDS011;73596;49.482;11.238;2024-01-30T04:37:03;1.43;;;0.90;;
83634;SDS011;73596;49.482;11.238;2024-01-30T04:39:28;1.83;;;0.97;;
83634;SDS011;73596;49.482;11.238;2024-01-30T04:41:53;2.22;;;1.10;;
83634;SDS011;73596;49.482;11.238;2024-01-30T04:44:19;2.72;;;1.05;;
83634;SDS011;73596;49.482;11.238;2024-01-30T04:46:44;2.07;;;1.10;;
83634;SDS011;73596;49.482;11.238;2024-01-30T04:49:10;3.00;;;1.10;;
83634;SDS011;73596;49.482;11.238;2024-01-30T04:51:35;2.60;;;1.67;;
83634;SDS011;73596;49.482;11.238;2024-01-30T04:54:00;2.87;;;1.73;;
83634;SDS011;73596;49.482;11.238;2024-01-30T04:56:26;2.63;;;1.33;;
83634;SDS011;73596;49.482;11.238;2024-01-30T04:58:51;2.57;;;1.20;;
83634;SDS011;73596;49.482;11.238;2024-01-30T05:01:16;1.20;;;0.80;;
83634;SDS011;73596;49.482;11.238;2024-01-30T05:03:42;3.95;;;1.30;;
83634;SDS011;73596;49.482;11.238;2024-01-30T05:06:07;2.08;;;1.38;;
83634;SDS011;73596;49.482;11.238;2024-01-30T05:08:33;4.60;;;1.57;;
83634;SDS011;73596;49.482;11.238;2024-01-30T05:11:01;2.10;;;1.53;;
83634;SDS011;73596;49.482;11.238;2024-01-30T05:13:28;2.60;;;1.33;;
83634;SDS011;73596;49.482;11.238;2024-01-30T05:15:53;2.05;;;1.20;;
83634;SDS011;73596;49.482;11.238;2024-01-30T05:18:19;1.20;;;0.80;;
83634;SDS011;73596;49.482;11.238;2024-01-30T05:20:44;4.67;;;1.03;;
83634;SDS011;73596;49.482;11.238;2024-01-30T05:23:09;2.67;;;1.57;;
83634;SDS011;73596;49.482;11.238;2024-01-30T05:25:34;2.87;;;1.03;;
83634;SDS011;73596;49.482;11.238;2024-01-30T05:28:00;1.33;;;0.90;;
83634;SDS011;73596;49.482;11.238;2024-01-30T05:30:25;2.57;;;1.20;;
83634;SDS011;73596;49.482;11.238;2024-01-30T05:32:50;1.80;;;1.20;;
83634;SDS011;73596;49.482;11.238;2024-01-30T05:35:15;3.30;;;1.80;;
83634;SDS011;73596;49.482;11.238;2024-01-30T05:37:41;3.50;;;1.60;;
83634;SDS011;73596;49.482;11.238;2024-01-30T05:40:06;2.93;;;1.33;;
83634;SDS011;73596;49.482;11.238;2024-01-30T05:42:32;1.45;;;0.90;;
83634;SDS011;73596;49.482;11.238;2024-01-30T05:44:58;2.17;;;1.10;;
83634;SDS011;73596;49.482;11.238;2024-01-30T05:47:23;1.60;;;1.10;;
83634;SDS011;73596;49.482;11.238;2024-01-30T05:49:48;2.90;;;1.57;;
83634;SDS011;73596;49.482;11.238;2024-01-30T05:52:13;1.97;;;1.27;;
83634;SDS011;73596;49.482;11.238;2024-01-30T05:54:40;1.73;;;1.30;;
83634;SDS011;73596;49.482;11.238;2024-01-30T05:57:05;1.80;;;1.33;;
83634;SDS011;73596;49.482;11.238;2024-01-30T05:59:30;3.33;;;1.23;;
83634;SDS011;73596;49.482;11.238;2024-01-30T06:01:56;2.83;;;1.70;;
83634;SDS011;73596;49.482;11.238;2024-01-30T06:04:21;2.47;;;1.50;;
83634;SDS011;73596;49.482;11.238;2024-01-30T06:06:46;2.63;;;1.70;;
83634;SDS011;73596;49.482;11.238;2024-01-30T06:09:11;6.20;;;1.60;;
83634;SDS011;73596;49.482;11.238;2024-01-30T06:11:37;4.10;;;1.33;;
83634;SDS011;73596;49.482;11.238;2024-01-30T06:14:03;2.88;;;1.67;;
83634;SDS011;73596;49.482;11.238;2024-01-30T06:16:28;4.47;;;2.60;;
83634;SDS011;73596;49.482;11.238;2024-01-30T06:18:54;4.35;;;2.03;;
83634;SDS011;73596;49.482;11.238;2024-01-30T06:21:20;3.08;;;1.42;;
83634;SDS011;73596;49.482;11.238;2024-01-30T06:23:45;6.67;;;2.13;;
83634;SDS011;73596;49.482;11.238;2024-01-30T06:26:11;1.67;;;1.40;;
83634;SDS011;73596;49.482;11.238;2024-01-30T06:28:36;5.88;;;2.00;;
83634;SDS011;73596;49.482;11.238;2024-01-30T06:31:01;4.23;;;2.00;;
83634;SDS011;73596;49.482;11.238;2024-01-30T06:33:27;2.63;;;1.60;;
83634;SDS011;73596;49.482;11.238;2024-01-30T06:35:52;2.27;;;1.50;;
83634;SDS011;73596;49.482;11.238;2024-01-30T06:38:17;2.93;;;1.77;;
83634;SDS011;73596;49.482;11.238;2024-01-30T06:40:42;3.30;;;1.93;;
83634;SDS011;73596;49.482;11.238;2024-01-30T06:43:08;4.75;;;2.20;;
83634;SDS011;73596;49.482;11.238;2024-01-30T06:45:33;4.40;;;2.60;;
83634;SDS011;73596;49.482;11.238;2024-01-30T06:47:59;4.32;;;1.98;;
83634;SDS011;73596;49.482;11.238;2024-01-30T06:50:25;3.65;;;2.05;;
83634;SDS011;73596;49.482;11.238;2024-01-30T06:52:50;3.53;;;2.30;;
83634;SDS011;73596;49.482;11.238;2024-01-30T06:55:16;2.50;;;1.47;;
83634;SDS011;73596;49.482;11.238;2024-01-30T06:57:41;1.98;;;1.60;;
83634;SDS011;73596;49.482;11.238;2024-01-30T07:00:07;6.40;;;2.58;;
83634;SDS011;73596;49.482;11.238;2024-01-30T07:02:32;5.63;;;1.60;;
83634;SDS011;73596;49.482;11.238;2024-01-30T07:04:58;3.30;;;1.88;;
83634;SDS011;73596;49.482;11.238;2024-01-30T07:07:23;3.07;;;1.83;;
83634;SDS011;73596;49.482;11.238;2024-01-30T07:09:48;3.13;;;1.60;;
83634;SDS011;73596;49.482;11.238;2024-01-30T07:12:17;5.32;;;2.10;;
83634;SDS011;73596;49.482;11.238;2024-01-30T07:14:42;8.50;;;2.65;;
83634;SDS011;73596;49.482;11.238;2024-01-30T07:17:08;2.60;;;1.43;;
83634;SDS011;73596;49.482;11.238;2024-01-30T07:19:33;3.53;;;1.60;;
83634;SDS011;73596;49.482;11.238;2024-01-30T07:21:59;3.38;;;1.65;;
83634;SDS011;73596;49.482;11.238;2024-01-30T07:24:24;2.97;;;1.97;;
83634;SDS011;73596;49.482;11.238;2024-01-30T07:26:49;4.43;;;1.90;;
83634;SDS011;73596;49.482;11.238;2024-01-30T07:29:15;3.77;;;1.87;;
83634;SDS011;73596;49.482;11.238;2024-01-30T07:31:40;3.30;;;1.80;;
83634;SDS011;73596;49.482;11.238;2024-01-30T07:34:05;5.87;;;2.03;;
83634;SDS011;73596;49.482;11.238;2024-01-30T07:36:30;7.67;;;2.20;;
83634;SDS011;73596;49.482;11.238;2024-01-30T07:38:56;6.00;;;1.97;;
83634;SDS011;73596;49.482;11.238;2024-01-30T07:41:21;6.60;;;1.93;;
83634;SDS011;73596;49.482;11.238;2024-01-30T07:43:46;3.50;;;2.07;;
83634;SDS011;73596;49.482;11.238;2024-01-30T07:46:11;3.37;;;1.57;;
83634;SDS011;73596;49.482;11.238;2024-01-30T07:48:37;4.50;;;1.70;;
83634;SDS011;73596;49.482;11.238;2024-01-30T07:51:02;2.60;;;1.83;;
83634;SDS011;73596;49.482;11.238;2024-01-30T07:53:28;4.50;;;2.40;;
83634;SDS011;73596;49.482;11.238;2024-01-30T07:55:54;8.05;;;3.78;;
83634;SDS011;73596;49.482;11.238;2024-01-30T07:58:19;11.10;;;5.13;;
83634;SDS011;73596;49.482;11.238;2024-01-30T08:00:45;8.77;;;4.23;;
83634;SDS011;73596;49.482;11.238;2024-01-30T08:03:10;13.13;;;4.55;;
83634;SDS011;73596;49.482;11.238;2024-01-30T08:05:35;6.97;;;2.93;;
83634;SDS011;73596;49.482;11.238;2024-01-30T08:08:00;6.20;;;3.40;;
83634;SDS011;73596;49.482;11.238;2024-01-30T08:10:26;7.50;;;3.08;;
83634;SDS011;73596;49.482;11.238;2024-01-30T08:12:51;6.83;;;2.63;;
83634;SDS011;73596;49.482;11.238;2024-01-30T08:15:16;17.40;;;6.70;;
83634;SDS011;73596;49.482;11.238;2024-01-30T08:17:42;16.45;;;6.68;;
83634;SDS011;73596;49.482;11.238;2024-01-30T08:20:07;13.93;;;7.80;;
83634;SDS011;73596;49.482;11.238;2024-01-30T08:22:38;12.07;;;6.85;;
83634;SDS011;73596;49.482;11.238;2024-01-30T08:25:04;13.18;;;6.32;;
83634;SDS011;73596;49.482;11.238;2024-01-30T08:27:30;8.38;;;5.63;;
83634;SDS011;73596;49.482;11.238;2024-01-30T08:29:55;14.37;;;7.30;;
83634;SDS011;73596;49.482;11.238;2024-01-30T08:32:20;12.10;;;6.03;;
83634;SDS011;73596;49.482;11.238;2024-01-30T08:34:45;10.67;;;6.47;;
83634;SDS011;73596;49.482;11.238;2024-01-30T08:37:11;12.20;;;6.20;;
83634;SDS011;73596;49.482;11.238;2024-01-30T08:39:37;11.27;;;5.63;;
83634;SDS011;73596;49.482;11.238;2024-01-30T08:42:02;11.07;;;6.90;;
83634;SDS011;73596;49.482;11.238;2024-01-30T08:44:28;17.70;;;6.63;;
83634;SDS011;73596;49.482;11.238;2024-01-30T08:46:53;14.60;;;6.67;;
83634;SDS011;73596;49.482;11.238;2024-01-30T08:49:19;14.03;;;7.70;;
83634;SDS011;73596;49.482;11.238;2024-01-30T08:51:45;13.15;;;6.57;;
83634;SDS011;73596;49.482;11.238;2024-01-30T08:54:11;15.97;;;7.57;;
83634;SDS011;73596;49.482;11.238;2024-01-30T08:56:36;11.47;;;7.63;;
83634;SDS011;73596;49.482;11.238;2024-01-30T08:59:01;14.97;;;8.00;;
83634;SDS011;73596;49.482;11.238;2024-01-30T09:01:26;12.50;;;7.50;;
83634;SDS011;73596;49.482;11.238;2024-01-30T09:03:52;16.23;;;9.05;;
83634;SDS011;73596;49.482;11.238;2024-01-30T09:06:18;19.73;;;7.72;;
83634;SDS011;73596;49.482;11.238;2024-01-30T09:08:43;14.57;;;7.97;;
83634;SDS011;73596;49.482;11.238;2024-01-30T09:11:09;17.85;;;8.60;;
83634;SDS011;73596;49.482;11.238;2024-01-30T09:13:35;13.80;;;8.55;;
83634;SDS011;73596;49.482;11.238;2024-01-30T09:16:00;16.08;;;8.15;;
83634;SDS011;73596;49.482;11.238;2024-01-30T09:18:26;12.80;;;7.10;;
83634;SDS011;73596;49.482;11.238;2024-01-30T09:20:51;20.70;;;9.50;;
83634;SDS011;73596;49.482;11.238;2024-01-30T09:23:16;13.43;;;7.33;;
83634;SDS011;73596;49.482;11.238;2024-01-30T09:25:43;13.27;;;7.65;;
83634;SDS011;73596;49.482;11.238;2024-01-30T09:28:09;18.03;;;8.03;;
83634;SDS011;73596;49.482;11.238;2024-01-30T09:30:34;15.63;;;7.50;;
83634;SDS011;73596;49.482;11.238;2024-01-30T09:32:59;16.77;;;8.53;;
83634;SDS011;73596;49.482;11.238;2024-01-30T09:35:24;17.57;;;8.43;;
83634;SDS011;73596;49.482;11.238;2024-01-30T09:37:50;14.83;;;7.77;;
83634;SDS011;73596;49.482;11.238;2024-01-30T09:40:16;19.25;;;7.78;;
83634;SDS011;73596;49.482;11.238;2024-01-30T09:42:44;18.25;;;8.40;;
83634;SDS011;73596;49.482;11.238;2024-01-30T09:45:11;19.45;;;9.27;;
83634;SDS011;73596;49.482;11.238;2024-01-30T09:47:42;18.30;;;8.73;;
83634;SDS011;73596;49.482;11.238;2024-01-30T09:50:09;15.35;;;8.85;;
83634;SDS011;73596;49.482;11.238;2024-01-30T09:52:35;19.25;;;8.27;;
83634;SDS011;73596;49.482;11.238;2024-01-30T09:55:00;16.25;;;8.55;;
83634;SDS011;73596;49.482;11.238;2024-01-30T09:57:26;11.88;;;6.00;;
83634;SDS011;73596;49.482;11.238;2024-01-30T09:59:51;12.18;;;5.57;;
83634;SDS011;73596;49.482;11.238;2024-01-30T10:02:19;14.00;;;6.80;;
83634;SDS011;73596;49.482;11.238;2024-01-30T10:04:44;13.10;;;7.15;;
83634;SDS011;73596;49.482;11.238;2024-01-30T10:07:10;13.10;;;8.20;;
83634;SDS011;73596;49.482;11.238;2024-01-30T10:09:37;14.95;;;8.60;;
83634;SDS011;73596;49.482;11.238;2024-01-30T10:12:02;10.60;;;5.37;;
83634;SDS011;73596;49.482;11.238;2024-01-30T10:14:28;20.17;;;6.55;;
83634;SDS011;73596;49.482;11.238;2024-01-30T10:16:55;24.08;;;10.18;;
83634;SDS011;73596;49.482;11.238;2024-01-30T10:19:20;17.27;;;8.55;;
83634;SDS011;73596;49.482;11.238;2024-01-30T10:21:46;14.13;;;7.25;;
83634;SDS011;73596;49.482;11.238;2024-01-30T10:24:11;19.52;;;8.60;;
83634;SDS011;73596;49.482;11.238;2024-01-30T10:26:38;16.60;;;8.80;;
83634;SDS011;73596;49.482;11.238;2024-01-30T10:29:04;14.23;;;7.93;;
83634;SDS011;73596;49.482;11.238;2024-01-30T10:31:29;16.27;;;7.63;;
83634;SDS011;73596;49.482;11.238;2024-01-30T10:33:54;12.77;;;7.67;;
83634;SDS011;73596;49.482;11.238;2024-01-30T10:36:20;20.07;;;9.60;;
83634;SDS011;73596;49.482;11.238;2024-01-30T10:38:52;12.15;;;4.82;;
83634;SDS011;73596;49.482;11.238;2024-01-30T10:41:21;14.20;;;6.90;;
83634;SDS011;73596;49.482;11.238;2024-01-30T10:43:54;13.38;;;7.05;;
83634;SDS011;73596;49.482;11.238;2024-01-30T10:46:28;21.15;;;9.35;;
83634;SDS011;73596;49.482;11.238;2024-01-30T10:48:57;18.27;;;8.75;;
83634;SDS011;73596;49.482;11.238;2024-01-30T10:51:27;22.73;;;10.07;;
83634;SDS011;73596;49.482;11.238;2024-01-30T10:53:52;15.00;;;9.57;;
83634;SDS011;73596;49.482;11.238;2024-01-30T10:56:20;19.77;;;9.80;;
83634;SDS011;73596;49.482;11.238;2024-01-30T10:58:46;15.90;;;8.07;;
83634;SDS011;73596;49.482;11.238;2024-01-30T11:01:13;22.48;;;9.00;;
83634;SDS011;73596;49.482;11.238;2024-01-30T11:03:40;17.88;;;8.02;;
83634;SDS011;73596;49.482;11.238;2024-01-30T11:06:10;16.02;;;8.90;;
83634;SDS011;73596;49.482;11.238;2024-01-30T11:08:36;17.20;;;8.30;;
83634;SDS011;73596;49.482;11.238;2024-01-30T11:11:01;19.20;;;8.17;;
83634;SDS011;73596;49.482;11.238;2024-01-30T11:13:29;15.73;;;7.05;;
83634;SDS011;73596;49.482;11.238;2024-01-30T11:15:55;13.90;;;7.03;;
83634;SDS011;73596;49.482;11.238;2024-01-30T11:18:28;14.38;;;6.57;;
83634;SDS011;73596;49.482;11.238;2024-01-30T11:20:58;19.02;;;9.75;;
83634;SDS011;73596;49.482;11.238;2024-01-30T11:23:26;21.77;;;9.93;;
83634;SDS011;73596;49.482;11.238;2024-01-30T11:25:52;19.05;;;8.85;;
83634;SDS011;73596;49.482;11.238;2024-01-30T11:28:18;18.85;;;9.35;;
83634;SDS011;73596;49.482;11.238;2024-01-30T11:30:43;21.10;;;10.07;;
83634;SDS011;73596;49.482;11.238;2024-01-30T11:33:10;17.85;;;9.00;;
83634;SDS011;73596;49.482;11.238;2024-01-30T11:35:40;20.65;;;9.50;;
83634;SDS011;73596;49.482;11.238;2024-01-30T11:38:15;17.77;;;8.38;;
83634;SDS011;73596;49.482;11.238;2024-01-30T11:40:41;19.25;;;9.77;;
83634;SDS011;73596;49.482;11.238;2024-01-30T11:43:07;24.98;;;8.60;;
83634;SDS011;73596;49.482;11.238;2024-01-30T11:45:34;15.98;;;8.10;;
83634;SDS011;73596;49.482;11.238;2024-01-30T11:48:00;16.08;;;9.20;;
83634;SDS011;73596;49.482;11.238;2024-01-30T11:50:26;20.38;;;9.00;;
83634;SDS011;73596;49.482;11.238;2024-01-30T11:52:52;15.65;;;7.40;;
83634;SDS011;73596;49.482;11.238;2024-01-30T11:55:19;16.92;;;6.95;;
83634;SDS011;73596;49.482;11.238;2024-01-30T11:57:44;16.90;;;7.97;;
83634;SDS011;73596;49.482;11.238;2024-01-30T12:00:16;14.80;;;8.38;;
83634;SDS011;73596;49.482;11.238;2024-01-30T12:02:43;12.77;;;6.90;;
83634;SDS011;73596;49.482;11.238;2024-01-30T12:05:09;12.77;;;6.75;;
83634;SDS011;73596;49.482;11.238;2024-01-30T12:07:35;17.55;;;7.50;;
83634;SDS011;73596;49.482;11.238;2024-01-30T12:10:01;13.20;;;6.80;;
83634;SDS011;73596;49.482;11.238;2024-01-30T12:12:27;21.08;;;9.07;;
83634;SDS011;73596;49.482;11.238;2024-01-30T12:14:54;16.65;;;9.73;;
83634;SDS011;73596;49.482;11.238;2024-01-30T12:17:30;16.95;;;9.43;;
83634;SDS011;73596;49.482;11.238;2024-01-30T12:20:03;13.45;;;7.82;;
83634;SDS011;73596;49.482;11.238;2024-01-30T12:22:29;11.20;;;6.18;;
83634;SDS011;73596;49.482;11.238;2024-01-30T12:24:54;16.08;;;7.80;;
83634;SDS011;73596;49.482;11.238;2024-01-30T12:27:20;13.37;;;7.30;;
83634;SDS011;73596;49.482;11.238;2024-01-30T12:29:45;17.13;;;7.95;;
83634;SDS011;73596;49.482;11.238;2024-01-30T12:32:14;12.43;;;7.97;;
83634;SDS011;73596;49.482;11.238;2024-01-30T12:37:06;17.38;;;9.30;;
83634;SDS011;73596;49.482;11.238;2024-01-30T12:39:34;12.20;;;6.88;;
83634;SDS011;73596;49.482;11.238;2024-01-30T12:42:00;15.35;;;9.25;;
83634;SDS011;73596;49.482;11.238;2024-01-30T12:44:25;12.15;;;6.85;;
83634;SDS011;73596;49.482;11.238;2024-01-30T12:46:50;20.08;;;10.25;;
83634;SDS011;73596;49.482;11.238;2024-01-30T12:49:16;15.03;;;8.47;;
83634;SDS011;73596;49.482;11.238;2024-01-30T12:51:41;18.30;;;9.87;;
83634;SDS011;73596;49.482;11.238;2024-01-30T12:54:06;16.13;;;8.53;;
83634;SDS011;73596;49.482;11.238;2024-01-30T12:56:32;15.77;;;8.23;;
83634;SDS011;73596;49.482;11.238;2024-01-30T12:58:57;15.25;;;9.15;;
83634;SDS011;73596;49.482;11.238;2024-01-30T13:01:22;23.13;;;10.60;;
83634;SDS011;73596;49.482;11.238;2024-01-30T13:03:48;19.50;;;9.73;;
83634;SDS011;73596;49.482;11.238;2024-01-30T13:06:13;21.10;;;10.18;;
83634;SDS011;73596;49.482;11.238;2024-01-30T13:08:39;20.13;;;12.45;;
83634;SDS011;73596;49.482;11.238;2024-01-30T13:11:04;14.73;;;9.00;;
83634;SDS011;73596;49.482;11.238;2024-01-30T13:13:29;22.05;;;8.82;;
83634;SDS011;73596;49.482;11.238;2024-01-30T13:15:54;14.50;;;7.33;;
83634;SDS011;73596;49.482;11.238;2024-01-30T13:18:20;18.80;;;8.00;;
83634;SDS011;73596;49.482;11.238;2024-01-30T13:20:45;14.75;;;7.38;;
83634;SDS011;73596;49.482;11.238;2024-01-30T13:23:10;20.83;;;10.13;;
83634;SDS011;73596;49.482;11.238;2024-01-30T13:25:36;20.33;;;10.27;;
83634;SDS011;73596;49.482;11.238;2024-01-30T13:28:01;23.90;;;10.63;;
83634;SDS011;73596;49.482;11.238;2024-01-30T13:30:26;27.03;;;11.73;;
83634;SDS011;73596;49.482;11.238;2024-01-30T13:32:51;18.90;;;9.73;;
83634;SDS011;73596;49.482;11.238;2024-01-30T13:35:17;18.65;;;8.77;;
83634;SDS011;73596;49.482;11.238;2024-01-30T13:37:42;13.57;;;7.28;;
83634;SDS011;73596;49.482;11.238;2024-01-30T13:40:08;10.25;;;6.32;;
83634;SDS011;73596;49.482;11.238;2024-01-30T13:42:34;17.52;;;9.82;;
83634;SDS011;73596;49.482;11.238;2024-01-30T13:44:59;19.40;;;9.93;;
83634;SDS011;73596;49.482;11.238;2024-01-30T13:47:24;25.00;;;11.13;;
83634;SDS011;73596;49.482;11.238;2024-01-30T13:49:50;18.50;;;9.90;;
83634;SDS011;73596;49.482;11.238;2024-01-30T13:52:15;19.35;;;9.95;;
83634;SDS011;73596;49.482;11.238;2024-01-30T13:54:40;19.73;;;11.17;;
83634;SDS011;73596;49.482;11.238;2024-01-30T13:57:05;17.83;;;8.43;;
83634;SDS011;73596;49.482;11.238;2024-01-30T13:59:32;20.23;;;9.77;;
83634;SDS011;73596;49.482;11.238;2024-01-30T14:01:57;17.60;;;8.63;;
83634;SDS011;73596;49.482;11.238;2024-01-30T14:04:23;17.33;;;8.27;;
83634;SDS011;73596;49.482;11.238;2024-01-30T14:06:48;11.63;;;5.83;;
83634;SDS011;73596;49.482;11.238;2024-01-30T14:09:14;16.33;;;7.82;;
83634;SDS011;73596;49.482;11.238;2024-01-30T14:11:40;11.02;;;6.18;;
83634;SDS011;73596;49.482;11.238;2024-01-30T14:14:06;8.35;;;4.70;;
83634;SDS011;73596;49.482;11.238;2024-01-30T14:16:31;9.77;;;5.40;;
83634;SDS011;73596;49.482;11.238;2024-01-30T14:18:57;5.47;;;3.73;;
83634;SDS011;73596;49.482;11.238;2024-01-30T14:21:22;5.67;;;3.67;;